CHX20 LMMG-LMMG

Flight info

Callsign CHX20
Flight time N/A
Altitude 1000
Route LMMG-VFR-LMMG
Aircraft H1/L-G/C

Departure

Time 2026-04-11 17:50
Airport Xewkija Heliport (LMMG)

Arrival

Time N/A
Airport Xewkija Heliport (LMMG)
Time Latitude Longitude Altitude Speed Heading
2026-04-11 17:37 36.02721 14.27273 319 ft 0 kts
2026-04-11 17:43 36.02746 14.27286 345 ft 3 kts 18°
2026-04-11 17:43 36.02770 14.27300 578 ft 9 kts 37°
2026-04-11 17:43 36.02922 14.27613 664 ft 81 kts 69°
2026-04-11 17:43 36.02827 14.28360 650 ft 101 kts 118°
2026-04-11 17:44 36.02299 14.29034 594 ft 111 kts 124°
2026-04-11 17:44 36.01828 14.29839 530 ft 121 kts 113°
2026-04-11 17:44 36.01509 14.30796 544 ft 120 kts 96°
2026-04-11 17:44 36.01395 14.31809 515 ft 119 kts 91°
2026-04-11 17:45 36.01261 14.32804 504 ft 117 kts 95°
2026-04-11 17:45 36.01154 14.33784 581 ft 114 kts 89°
2026-04-11 17:45 36.00991 14.34734 633 ft 113 kts 103°
2026-04-11 17:45 36.00601 14.35607 574 ft 121 kts 119°
2026-04-11 17:46 36.00020 14.36434 429 ft 129 kts 126°
2026-04-11 17:46 35.99423 14.37217 484 ft 121 kts 121°
2026-04-11 17:46 35.98900 14.38052 418 ft 127 kts 127°
2026-04-11 17:46 35.98256 14.38817 365 ft 128 kts 122°
2026-04-11 17:47 35.97701 14.39675 354 ft 126 kts 118°
2026-04-11 17:47 35.97173 14.40545 316 ft 128 kts 115°
2026-04-11 17:47 35.96694 14.41463 283 ft 126 kts 117°
2026-04-11 17:47 35.96166 14.42293 287 ft 119 kts 120°
2026-04-11 17:48 35.95094 14.43734 428 ft 109 kts 126°
2026-04-11 17:48 35.94561 14.44391 498 ft 109 kts 127°
2026-04-11 17:48 35.93981 14.45013 584 ft 113 kts 132°
2026-04-11 17:49 35.92761 14.46307 756 ft 118 kts 133°
2026-04-11 17:49 35.91550 14.47694 773 ft 120 kts 139°
2026-04-11 17:50 35.90846 14.48262 766 ft 120 kts 135°
2026-04-11 17:50 35.90216 14.48931 812 ft 118 kts 129°
2026-04-11 17:50 35.89624 14.49594 924 ft 112 kts 133°
2026-04-11 17:50 35.88835 14.49808 727 ft 131 kts 185°
2026-04-11 17:51 35.87992 14.49249 566 ft 136 kts 198°
2026-04-11 17:51 35.86398 14.48234 602 ft 125 kts 191°
2026-04-11 17:51 35.85546 14.48315 660 ft 117 kts 151°
2026-04-11 17:52 35.85066 14.48887 918 ft 112 kts 82°
2026-04-11 17:52 35.85649 14.49591 797 ft 135 kts
2026-04-11 17:52 35.86589 14.49624 809 ft 135 kts 354°
2026-04-11 17:52 35.87515 14.49615 799 ft 128 kts 353°
2026-04-11 17:53 35.88336 14.49567 591 ft 108 kts 357°
2026-04-11 17:53 35.88957 14.49592 463 ft 69 kts 359°
2026-04-11 17:53 35.89303 14.49612 388 ft 33 kts
2026-04-11 17:53 35.89465 14.49625 431 ft 13 kts
2026-04-11 17:54 35.89507 14.49635 398 ft 7 kts 20°
2026-04-11 17:54 35.89553 14.49662 377 ft 8 kts 29°
2026-04-11 17:54 35.89601 14.49655 332 ft 9 kts 334°
2026-04-11 17:54 35.89601 14.49616 240 ft 4 kts 253°
2026-04-11 17:55 35.89585 14.49589 138 ft 3 kts 226°
2026-04-11 17:55 35.89572 14.49582 117 ft 2 kts 233°
2026-04-11 17:55 35.89570 14.49580 109 ft 0 kts 239°